Time;durP1;ratioP1;P1;durP2;ratioP2;P2;SDS_P1;SDS_P2;PMS_P1;PMS_P2;Temp;Humidity;BMP_temperature;BMP_pressure;BME280_temperature;BME280_humidity;BME280_pressure;Samples;Min_cycle;Max_cycle;Signal;HPM_P1;HPM_P2
2023/08/31 00:01:38;;;;;;;1.20;0.80;;;;;;;;;;5088034;28;43139;-65
2023/08/31 00:04:08;;;;;;;1.92;1.00;;;;;;;;;;5088777;28;41308;-65
2023/08/31 00:06:36;;;;;;;1.30;0.82;;;;;;;;;;5087703;28;41059;-65
2023/08/31 00:09:05;;;;;;;2.88;0.88;;;;;;;;;;5088959;28;40448;-65
2023/08/31 00:11:35;;;;;;;1.10;0.65;;;;;;;;;;5087253;28;41689;-65
2023/08/31 00:14:03;;;;;;;1.48;0.65;;;;;;;;;;5087706;28;43141;-65
2023/08/31 00:16:31;;;;;;;1.05;0.70;;;;;;;;;;5087390;28;41998;-65
2023/08/31 00:18:59;;;;;;;2.50;1.27;;;;;;;;;;5088280;28;42163;-65
2023/08/31 00:21:27;;;;;;;1.20;0.90;;;;;;;;;;5086905;28;42615;-65
2023/08/31 00:23:55;;;;;;;1.50;0.90;;;;;;;;;;5087915;28;41363;-65
2023/08/31 00:26:23;;;;;;;1.63;1.00;;;;;;;;;;5087888;28;42742;-65
2023/08/31 00:28:53;;;;;;;1.42;0.90;;;;;;;;;;5086655;28;41511;-66
2023/08/31 00:31:22;;;;;;;1.60;0.90;;;;;;;;;;5119945;27;40249;-65
2023/08/31 00:33:50;;;;;;;1.40;0.70;;;;;;;;;;5081783;28;41807;-65
2023/08/31 00:36:18;;;;;;;1.63;0.82;;;;;;;;;;5076288;28;39558;-65
2023/08/31 00:38:47;;;;;;;1.38;0.77;;;;;;;;;;5082226;28;41482;-65
2023/08/31 00:41:15;;;;;;;1.70;0.60;;;;;;;;;;5083245;28;40408;-65
2023/08/31 00:43:42;;;;;;;1.27;0.80;;;;;;;;;;5075657;28;39031;-65
2023/08/31 00:46:12;;;;;;;0.75;0.55;;;;;;;;;;5086635;28;40081;-65
2023/08/31 00:48:40;;;;;;;1.13;1.00;;;;;;;;;;5085685;28;40942;-65
2023/08/31 00:51:10;;;;;;;1.10;0.60;;;;;;;;;;5086478;28;40086;-65
2023/08/31 00:53:38;;;;;;;1.95;0.80;;;;;;;;;;5087008;28;42149;-65
2023/08/31 00:56:07;;;;;;;1.80;1.00;;;;;;;;;;5085539;28;39803;-65
2023/08/31 00:58:35;;;;;;;0.77;0.63;;;;;;;;;;5087120;28;41567;-65
2023/08/31 01:01:05;;;;;;;1.92;0.77;;;;;;;;;;5087975;28;42730;-65
2023/08/31 01:03:36;;;;;;;0.57;0.57;;;;;;;;;;5086678;27;39984;-65
2023/08/31 01:06:10;;;;;;;1.05;0.88;;;;;;;;;;5085988;28;40766;-65
2023/08/31 01:08:41;;;;;;;1.30;0.90;;;;;;;;;;5119733;27;41508;-65
2023/08/31 01:11:16;;;;;;;0.85;0.70;;;;;;;;;;5086859;28;41874;-65
2023/08/31 01:13:45;;;;;;;1.17;0.80;;;;;;;;;;5085958;28;43158;-65
2023/08/31 01:16:13;;;;;;;1.13;0.60;;;;;;;;;;5086873;28;41414;-65
2023/08/31 01:18:43;;;;;;;1.10;1.00;;;;;;;;;;5086518;28;42367;-65
2023/08/31 01:21:12;;;;;;;1.88;0.90;;;;;;;;;;5087257;28;41864;-65
2023/08/31 01:23:53;;;;;;;1.83;0.73;;;;;;;;;;5086621;28;41327;-66
2023/08/31 01:26:21;;;;;;;1.50;0.80;;;;;;;;;;5088436;27;42664;-65
2023/08/31 01:28:50;;;;;;;1.13;0.80;;;;;;;;;;5087949;27;42129;-65
2023/08/31 01:31:18;;;;;;;1.05;0.93;;;;;;;;;;5086588;28;41311;-65
2023/08/31 01:33:48;;;;;;;0.57;0.50;;;;;;;;;;5085858;28;40213;-65
2023/08/31 01:36:18;;;;;;;0.77;0.57;;;;;;;;;;5087446;28;41156;-65
2023/08/31 01:38:46;;;;;;;1.27;0.70;;;;;;;;;;5085922;28;42311;-65
2023/08/31 01:41:17;;;;;;;1.90;1.10;;;;;;;;;;5119640;27;41986;-65
2023/08/31 01:43:45;;;;;;;1.15;0.50;;;;;;;;;;5090661;28;40690;-66
2023/08/31 01:46:13;;;;;;;1.05;0.95;;;;;;;;;;5090446;28;42764;-65
2023/08/31 01:48:41;;;;;;;1.98;1.48;;;;;;;;;;5088541;28;41447;-65
2023/08/31 01:51:10;;;;;;;0.80;0.60;;;;;;;;;;5090729;28;41431;-65
2023/08/31 01:53:37;;;;;;;1.27;0.88;;;;;;;;;;5087228;28;39931;-65
2023/08/31 01:56:06;;;;;;;0.90;0.90;;;;;;;;;;5123601;27;42106;-65
2023/08/31 01:58:35;;;;;;;1.08;0.93;;;;;;;;;;5122052;27;41408;-65
2023/08/31 02:01:03;;;;;;;1.38;0.80;;;;;;;;;;5088976;28;42156;-65
2023/08/31 02:03:31;;;;;;;0.93;0.50;;;;;;;;;;5088823;28;39146;-65
2023/08/31 02:05:59;;;;;;;1.08;0.70;;;;;;;;;;5088094;28;41740;-64
2023/08/31 02:08:27;;;;;;;2.38;1.67;;;;;;;;;;5090030;28;42260;-65
2023/08/31 02:10:55;;;;;;;1.63;1.23;;;;;;;;;;5090789;27;40347;-65
2023/08/31 02:13:23;;;;;;;3.75;2.53;;;;;;;;;;5088173;28;39745;-65
2023/08/31 02:15:53;;;;;;;1.55;1.38;;;;;;;;;;5087967;28;40946;-65
2023/08/31 02:18:21;;;;;;;0.82;0.60;;;;;;;;;;5088375;28;39432;-65
2023/08/31 02:20:52;;;;;;;1.15;1.02;;;;;;;;;;5120824;27;40567;-67
2023/08/31 02:23:20;;;;;;;3.00;2.40;;;;;;;;;;5086878;28;40324;-65
2023/08/31 02:25:48;;;;;;;2.50;1.30;;;;;;;;;;5089450;28;41600;-65
2023/08/31 02:28:17;;;;;;;2.80;2.20;;;;;;;;;;5088135;28;40985;-65
2023/08/31 02:30:47;;;;;;;1.85;1.65;;;;;;;;;;5089997;28;41103;-65
2023/08/31 02:33:16;;;;;;;1.27;0.93;;;;;;;;;;5090083;28;40999;-66
2023/08/31 02:35:44;;;;;;;4.90;2.75;;;;;;;;;;5089157;28;42790;-65
2023/08/31 02:38:12;;;;;;;1.92;1.42;;;;;;;;;;5090194;28;40819;-66
2023/08/31 02:40:40;;;;;;;1.42;1.25;;;;;;;;;;5090005;27;41334;-65
2023/08/31 02:43:08;;;;;;;2.00;1.27;;;;;;;;;;5087764;28;39357;-65
2023/08/31 02:45:37;;;;;;;3.13;2.55;;;;;;;;;;5087873;28;41284;-65
2023/08/31 02:48:07;;;;;;;4.57;2.35;;;;;;;;;;5089262;28;42789;-65
2023/08/31 02:50:36;;;;;;;2.45;1.50;;;;;;;;;;5089445;28;41386;-65
2023/08/31 02:53:04;;;;;;;1.63;1.17;;;;;;;;;;5086931;28;41458;-66
2023/08/31 02:55:33;;;;;;;2.92;2.05;;;;;;;;;;5085135;28;41874;-65
2023/08/31 02:58:01;;;;;;;1.20;0.85;;;;;;;;;;5088006;28;38930;-65
2023/08/31 03:00:29;;;;;;;1.50;1.40;;;;;;;;;;5121873;27;40298;-65
2023/08/31 03:02:57;;;;;;;2.90;2.08;;;;;;;;;;5088915;28;41317;-65
2023/08/31 03:05:25;;;;;;;1.73;1.40;;;;;;;;;;5087626;28;41317;-65
2023/08/31 03:07:55;;;;;;;1.33;1.00;;;;;;;;;;5087996;28;41006;-65
2023/08/31 03:10:23;;;;;;;1.77;1.23;;;;;;;;;;5088582;28;41309;-66
2023/08/31 03:12:51;;;;;;;1.50;1.40;;;;;;;;;;5089169;28;41671;-65
2023/08/31 03:15:19;;;;;;;2.72;1.52;;;;;;;;;;5089044;28;42698;-66
2023/08/31 03:17:47;;;;;;;1.00;0.80;;;;;;;;;;5087941;28;41220;-65
2023/08/31 03:20:16;;;;;;;2.58;2.05;;;;;;;;;;5087910;28;40207;-66
2023/08/31 03:22:44;;;;;;;3.60;2.25;;;;;;;;;;5089067;28;42024;-65
2023/08/31 03:25:13;;;;;;;2.85;2.58;;;;;;;;;;5088821;28;41654;-65
2023/08/31 03:27:41;;;;;;;4.20;3.13;;;;;;;;;;5088856;28;41943;-65
2023/08/31 03:30:10;;;;;;;1.75;1.52;;;;;;;;;;5089646;27;41199;-65
2023/08/31 03:32:38;;;;;;;3.38;2.38;;;;;;;;;;5086863;28;39977;-65
2023/08/31 03:35:07;;;;;;;5.50;4.30;;;;;;;;;;5087707;28;41680;-65
2023/08/31 03:37:35;;;;;;;2.60;2.38;;;;;;;;;;5086206;28;38965;-67
2023/08/31 03:40:06;;;;;;;8.35;5.22;;;;;;;;;;5087112;28;40319;-65
2023/08/31 03:42:35;;;;;;;3.33;2.72;;;;;;;;;;5120355;27;41147;-66
2023/08/31 03:45:06;;;;;;;3.53;2.50;;;;;;;;;;5089042;28;40498;-65
2023/08/31 03:47:34;;;;;;;3.42;3.08;;;;;;;;;;5086550;28;40661;-66
2023/08/31 03:50:02;;;;;;;2.85;2.15;;;;;;;;;;5086598;28;38668;-65
2023/08/31 03:52:30;;;;;;;2.35;1.92;;;;;;;;;;5088174;27;42667;-65
2023/08/31 03:54:59;;;;;;;1.52;1.42;;;;;;;;;;5087325;28;40556;-65
2023/08/31 03:57:27;;;;;;;2.30;2.10;;;;;;;;;;5120512;27;39067;-65
2023/08/31 04:00:08;;;;;;;2.53;2.20;;;;;;;;;;5086727;28;40678;-65
2023/08/31 04:02:42;;;;;;;1.67;1.52;;;;;;;;;;5088303;28;42860;-65
2023/08/31 04:05:11;;;;;;;2.15;1.95;;;;;;;;;;5086039;28;39931;-65
2023/08/31 04:07:39;;;;;;;1.58;1.40;;;;;;;;;;5086908;28;40270;-65
2023/08/31 04:10:08;;;;;;;2.03;1.77;;;;;;;;;;5089663;27;41240;-65
2023/08/31 04:12:36;;;;;;;1.50;1.40;;;;;;;;;;5085737;28;41397;-65
2023/08/31 04:15:06;;;;;;;2.58;1.92;;;;;;;;;;5089225;28;42931;-65
2023/08/31 04:17:34;;;;;;;1.83;1.73;;;;;;;;;;5120900;27;40468;-65
2023/08/31 04:20:05;;;;;;;2.83;2.08;;;;;;;;;;5089156;27;42226;-65
2023/08/31 04:22:33;;;;;;;2.53;2.33;;;;;;;;;;5074320;28;44074;-66
2023/08/31 04:25:02;;;;;;;2.38;1.80;;;;;;;;;;5088894;28;41230;-65
2023/08/31 04:27:31;;;;;;;2.35;2.13;;;;;;;;;;5087234;28;42545;-65
2023/08/31 04:29:59;;;;;;;3.63;3.33;;;;;;;;;;5088909;28;42383;-65
2023/08/31 04:32:29;;;;;;;1.90;1.52;;;;;;;;;;5087779;28;41704;-65
2023/08/31 04:34:57;;;;;;;1.75;1.02;;;;;;;;;;5087802;28;43118;-65
2023/08/31 04:37:25;;;;;;;2.08;1.80;;;;;;;;;;5087739;28;41066;-65
2023/08/31 04:39:53;;;;;;;2.00;1.67;;;;;;;;;;5088458;28;42309;-66
2023/08/31 04:42:21;;;;;;;2.22;1.23;;;;;;;;;;5084715;28;41640;-65
2023/08/31 04:44:49;;;;;;;2.03;1.58;;;;;;;;;;5088299;28;40100;-65
2023/08/31 04:47:17;;;;;;;2.28;2.08;;;;;;;;;;5111114;27;40142;-65
2023/08/31 04:49:47;;;;;;;2.80;1.98;;;;;;;;;;5088314;28;42365;-66
2023/08/31 04:52:15;;;;;;;1.20;1.10;;;;;;;;;;5085407;28;40383;-66
2023/08/31 04:54:43;;;;;;;1.42;1.33;;;;;;;;;;5086912;28;42361;-65
2023/08/31 04:57:11;;;;;;;3.17;2.80;;;;;;;;;;5089108;27;40370;-66
2023/08/31 04:59:39;;;;;;;2.75;2.55;;;;;;;;;;5087679;28;42711;-66
2023/08/31 05:02:07;;;;;;;1.65;1.45;;;;;;;;;;5084961;28;42209;-65
2023/08/31 05:04:35;;;;;;;4.00;3.47;;;;;;;;;;5087404;28;40294;-65
2023/08/31 05:07:04;;;;;;;1.98;1.83;;;;;;;;;;5086087;28;41435;-65
2023/08/31 05:09:34;;;;;;;4.07;3.67;;;;;;;;;;5086713;28;43026;-65
2023/08/31 05:12:02;;;;;;;1.55;1.40;;;;;;;;;;5087578;28;41837;-65
2023/08/31 05:14:30;;;;;;;3.08;2.80;;;;;;;;;;5087529;28;42051;-65
2023/08/31 05:16:58;;;;;;;2.55;2.35;;;;;;;;;;5090116;28;40148;-65
2023/08/31 05:19:26;;;;;;;1.55;1.45;;;;;;;;;;5092163;27;41435;-65
2023/08/31 05:21:54;;;;;;;3.40;3.10;;;;;;;;;;5090693;28;42788;-65
2023/08/31 05:24:24;;;;;;;3.00;2.80;;;;;;;;;;5090598;28;41056;-66
2023/08/31 05:26:52;;;;;;;1.98;1.77;;;;;;;;;;5091594;28;41213;-65
2023/08/31 05:29:20;;;;;;;2.92;2.63;;;;;;;;;;5091430;28;42060;-66
2023/08/31 05:31:48;;;;;;;2.05;1.80;;;;;;;;;;5089948;28;40306;-66
2023/08/31 05:34:17;;;;;;;3.40;3.10;;;;;;;;;;5090743;28;40316;-66
2023/08/31 05:36:45;;;;;;;2.35;2.15;;;;;;;;;;5090569;28;39934;-66
2023/08/31 05:39:13;;;;;;;1.75;1.40;;;;;;;;;;5091451;28;41393;-66
2023/08/31 05:41:42;;;;;;;3.15;2.85;;;;;;;;;;5090335;28;41733;-66
2023/08/31 05:44:10;;;;;;;4.28;3.63;;;;;;;;;;5090748;28;40036;-66
2023/08/31 05:46:39;;;;;;;3.58;3.00;;;;;;;;;;5090648;28;42506;-66
2023/08/31 05:49:07;;;;;;;2.53;2.33;;;;;;;;;;5090897;28;42611;-66
2023/08/31 05:51:35;;;;;;;3.80;2.80;;;;;;;;;;5089904;28;40052;-66
2023/08/31 05:54:03;;;;;;;2.00;1.80;;;;;;;;;;5091261;28;42389;-66
2023/08/31 05:56:32;;;;;;;2.55;1.80;;;;;;;;;;5088135;28;42918;-66
2023/08/31 05:59:02;;;;;;;4.07;3.20;;;;;;;;;;5084618;28;41789;-66
2023/08/31 06:01:29;;;;;;;1.63;1.38;;;;;;;;;;5088501;28;43252;-66
2023/08/31 06:03:58;;;;;;;5.20;4.68;;;;;;;;;;5081336;28;42040;-66
2023/08/31 06:06:26;;;;;;;1.52;1.33;;;;;;;;;;5089879;28;41946;-66
2023/08/31 06:08:54;;;;;;;2.50;2.25;;;;;;;;;;5090799;28;42381;-66
2023/08/31 06:11:22;;;;;;;6.20;4.55;;;;;;;;;;5090330;28;40297;-66
2023/08/31 06:13:50;;;;;;;4.72;3.75;;;;;;;;;;5088845;28;42709;-66
2023/08/31 06:16:19;;;;;;;4.78;4.30;;;;;;;;;;5090751;28;41789;-66
2023/08/31 06:18:48;;;;;;;4.20;3.80;;;;;;;;;;5089457;28;41691;-66
2023/08/31 06:21:16;;;;;;;4.43;3.70;;;;;;;;;;5091101;27;41638;-66
2023/08/31 06:23:44;;;;;;;5.63;4.97;;;;;;;;;;5088477;28;40663;-66
2023/08/31 06:26:12;;;;;;;5.15;4.65;;;;;;;;;;5089007;28;42206;-66
2023/08/31 06:28:40;;;;;;;2.90;2.20;;;;;;;;;;5089150;28;42072;-66
2023/08/31 06:31:08;;;;;;;3.25;2.95;;;;;;;;;;5085382;28;40065;-66
2023/08/31 06:33:38;;;;;;;3.60;3.28;;;;;;;;;;5084272;28;41695;-66
2023/08/31 06:36:06;;;;;;;7.45;6.30;;;;;;;;;;5083075;28;42286;-66
2023/08/31 06:38:35;;;;;;;4.90;3.85;;;;;;;;;;5089887;28;40337;-66
2023/08/31 06:41:03;;;;;;;5.85;4.25;;;;;;;;;;5083170;28;40629;-66
2023/08/31 06:43:31;;;;;;;1.23;1.13;;;;;;;;;;5080492;28;41382;-66
2023/08/31 06:45:59;;;;;;;4.85;4.03;;;;;;;;;;5080262;28;42549;-66
2023/08/31 06:48:49;;;;;;;3.90;1.73;;;;;;;;;;5078999;28;41597;-66
2023/08/31 06:51:17;;;;;;;5.78;5.13;;;;;;;;;;5089803;28;41034;-66
2023/08/31 06:53:45;;;;;;;3.55;3.15;;;;;;;;;;5089792;28;41116;-68
2023/08/31 06:56:13;;;;;;;5.25;3.60;;;;;;;;;;5113207;27;42250;-66
2023/08/31 06:58:41;;;;;;;4.95;4.47;;;;;;;;;;5080838;28;40538;-66
2023/08/31 07:01:09;;;;;;;5.03;4.53;;;;;;;;;;5089250;28;42404;-66
2023/08/31 07:03:37;;;;;;;6.38;5.60;;;;;;;;;;5089322;28;33451;-66
2023/08/31 07:06:06;;;;;;;5.70;5.07;;;;;;;;;;5089905;28;42668;-67
2023/08/31 07:08:36;;;;;;;5.22;4.15;;;;;;;;;;5088058;28;43108;-66
2023/08/31 07:11:04;;;;;;;4.00;3.55;;;;;;;;;;5087541;28;38854;-66
2023/08/31 07:13:32;;;;;;;4.65;4.25;;;;;;;;;;5088267;28;41861;-66
2023/08/31 07:16:00;;;;;;;7.00;5.72;;;;;;;;;;5089243;28;41861;-66
2023/08/31 07:18:28;;;;;;;5.25;4.72;;;;;;;;;;5088372;28;42030;-66
2023/08/31 07:20:56;;;;;;;4.03;3.38;;;;;;;;;;5087129;28;42390;-67
2023/08/31 07:23:26;;;;;;;2.78;2.38;;;;;;;;;;5090208;27;42199;-66
2023/08/31 07:25:54;;;;;;;7.88;6.32;;;;;;;;;;5075739;28;41629;-66
2023/08/31 07:28:21;;;;;;;5.00;4.50;;;;;;;;;;5080685;28;43228;-66
2023/08/31 07:30:49;;;;;;;6.82;5.32;;;;;;;;;;5082610;28;40420;-66
2023/08/31 07:33:17;;;;;;;2.50;2.08;;;;;;;;;;5086718;28;41611;-66
2023/08/31 07:35:51;;;;;;;6.43;4.10;;;;;;;;;;5089208;28;41633;-66
2023/08/31 07:38:19;;;;;;;6.00;3.95;;;;;;;;;;5083348;28;40656;-66
2023/08/31 07:40:49;;;;;;;3.10;2.22;;;;;;;;;;5088389;28;42596;-67
2023/08/31 07:43:17;;;;;;;7.22;3.08;;;;;;;;;;5083287;28;42245;-67
2023/08/31 07:45:45;;;;;;;3.28;2.28;;;;;;;;;;5089423;28;40348;-68
2023/08/31 07:48:13;;;;;;;4.20;2.70;;;;;;;;;;5088588;28;43147;-67
2023/08/31 07:50:41;;;;;;;4.43;3.10;;;;;;;;;;5086186;28;41398;-67
2023/08/31 07:53:09;;;;;;;6.40;3.72;;;;;;;;;;5088669;28;41671;-67
2023/08/31 07:55:37;;;;;;;7.50;5.10;;;;;;;;;;5088288;28;42349;-67
2023/08/31 07:58:07;;;;;;;8.55;4.05;;;;;;;;;;5088174;28;40325;-67
2023/08/31 08:00:35;;;;;;;5.40;4.50;;;;;;;;;;5083921;28;41715;-67
2023/08/31 08:03:03;;;;;;;9.02;5.10;;;;;;;;;;5077446;28;43330;-68
2023/08/31 08:05:31;;;;;;;7.72;3.78;;;;;;;;;;5086903;28;41345;-68
2023/08/31 08:07:59;;;;;;;11.00;4.60;;;;;;;;;;5089372;28;41539;-68
2023/08/31 08:10:28;;;;;;;5.60;4.32;;;;;;;;;;5087588;28;40264;-69
2023/08/31 08:12:56;;;;;;;8.35;4.22;;;;;;;;;;5087818;28;42560;-67
2023/08/31 08:15:25;;;;;;;5.28;3.55;;;;;;;;;;5088338;28;42117;-69
2023/08/31 08:17:54;;;;;;;3.25;2.20;;;;;;;;;;5088432;28;40971;-68
2023/08/31 08:20:22;;;;;;;4.15;2.80;;;;;;;;;;5118557;27;40092;-67
2023/08/31 08:22:52;;;;;;;6.57;3.60;;;;;;;;;;5088682;27;41732;-67
2023/08/31 08:25:20;;;;;;;6.70;3.17;;;;;;;;;;5084925;28;41469;-68
2023/08/31 08:27:49;;;;;;;5.70;2.58;;;;;;;;;;5078743;28;20763;-69
2023/08/31 08:30:18;;;;;;;4.53;3.22;;;;;;;;;;5082938;28;42906;-68
2023/08/31 08:32:47;;;;;;;5.93;3.58;;;;;;;;;;5087022;28;41127;-68
2023/08/31 08:35:15;;;;;;;4.97;2.92;;;;;;;;;;5088528;28;41907;-68
2023/08/31 08:37:43;;;;;;;3.13;2.28;;;;;;;;;;5087690;28;40371;-68
2023/08/31 08:40:11;;;;;;;3.83;2.58;;;;;;;;;;5086303;28;40070;-70
2023/08/31 08:42:41;;;;;;;4.20;3.35;;;;;;;;;;5086892;28;42474;-69
2023/08/31 08:45:10;;;;;;;5.30;2.38;;;;;;;;;;5088182;28;40907;-69
2023/08/31 08:47:38;;;;;;;4.78;2.45;;;;;;;;;;5087135;28;42098;-69
2023/08/31 08:50:08;;;;;;;3.20;1.83;;;;;;;;;;5087183;28;43678;-69
2023/08/31 08:52:36;;;;;;;6.45;2.17;;;;;;;;;;5087506;28;40286;-69
2023/08/31 08:55:04;;;;;;;5.28;1.58;;;;;;;;;;5086818;28;41979;-69
2023/08/31 08:57:32;;;;;;;2.63;1.70;;;;;;;;;;5087463;28;41735;-69
2023/08/31 08:59:59;;;;;;;10.27;2.30;;;;;;;;;;5087892;28;41713;-69
2023/08/31 09:02:27;;;;;;;5.55;2.20;;;;;;;;;;5086207;28;42603;-68
2023/08/31 09:04:56;;;;;;;6.35;2.42;;;;;;;;;;5087149;28;40259;-67
2023/08/31 09:07:26;;;;;;;5.53;2.55;;;;;;;;;;5087281;28;41826;-67
2023/08/31 09:09:55;;;;;;;5.00;2.30;;;;;;;;;;5081517;28;42003;-68
2023/08/31 09:12:23;;;;;;;4.88;2.10;;;;;;;;;;5074121;28;40085;-68
2023/08/31 09:15:00;;;;;;;5.13;1.33;;;;;;;;;;5086743;28;41776;-68
2023/08/31 09:17:37;;;;;;;4.40;2.00;;;;;;;;;;5085312;28;39913;-67
2023/08/31 09:20:06;;;;;;;4.57;1.77;;;;;;;;;;5083378;28;42146;-67
2023/08/31 09:22:35;;;;;;;6.50;1.73;;;;;;;;;;5085155;28;42085;-66
2023/08/31 09:25:04;;;;;;;6.43;2.22;;;;;;;;;;5087352;28;40181;-66
2023/08/31 09:27:33;;;;;;;6.60;1.60;;;;;;;;;;5080900;28;41470;-67
2023/08/31 09:30:01;;;;;;;7.32;2.15;;;;;;;;;;5086168;28;41988;-66
2023/08/31 09:32:29;;;;;;;10.98;1.73;;;;;;;;;;5086324;28;40709;-67
2023/08/31 09:34:57;;;;;;;4.07;1.52;;;;;;;;;;5086954;28;41692;-67
2023/08/31 09:37:45;;;;;;;3.35;1.60;;;;;;;;;;5082905;28;40383;-67
2023/08/31 09:40:15;;;;;;;4.28;1.40;;;;;;;;;;5086676;28;41578;-67
2023/08/31 09:42:43;;;;;;;6.10;1.75;;;;;;;;;;5085878;28;41661;-67
2023/08/31 09:45:11;;;;;;;4.25;1.42;;;;;;;;;;5086142;28;40355;-67
2023/08/31 09:47:39;;;;;;;6.32;1.58;;;;;;;;;;5086569;28;41604;-67
2023/08/31 09:50:07;;;;;;;8.48;1.77;;;;;;;;;;5085867;28;41622;-66
2023/08/31 09:52:36;;;;;;;3.45;1.38;;;;;;;;;;5085727;28;40716;-66
2023/08/31 09:55:06;;;;;;;4.75;1.60;;;;;;;;;;5086790;28;41176;-67
2023/08/31 09:57:34;;;;;;;5.63;1.95;;;;;;;;;;5086192;28;43028;-67
2023/08/31 10:00:15;;;;;;;5.97;2.15;;;;;;;;;;5087349;28;41189;-67
2023/08/31 10:02:43;;;;;;;7.43;2.42;;;;;;;;;;5088740;28;43234;-67
2023/08/31 10:05:11;;;;;;;9.55;1.63;;;;;;;;;;5089776;28;40239;-68
2023/08/31 10:07:39;;;;;;;7.80;1.38;;;;;;;;;;5090468;27;42610;-69
2023/08/31 10:10:10;;;;;;;17.60;1.73;;;;;;;;;;5089355;28;43112;-69
2023/08/31 10:12:38;;;;;;;10.57;2.20;;;;;;;;;;5089697;27;41264;-69
2023/08/31 10:15:07;;;;;;;8.18;2.05;;;;;;;;;;5090290;28;42635;-68
2023/08/31 10:17:34;;;;;;;7.55;1.80;;;;;;;;;;5090245;28;43011;-69
2023/08/31 10:20:03;;;;;;;6.22;1.95;;;;;;;;;;5090096;28;39876;-68
2023/08/31 10:22:31;;;;;;;6.03;3.85;;;;;;;;;;5088238;28;42894;-67
2023/08/31 10:25:00;;;;;;;10.05;3.10;;;;;;;;;;5089492;28;41366;-67
2023/08/31 10:27:29;;;;;;;10.20;3.15;;;;;;;;;;5089188;28;42672;-67
2023/08/31 10:29:57;;;;;;;5.45;2.85;;;;;;;;;;5090295;28;42772;-67
2023/08/31 10:32:25;;;;;;;7.50;3.33;;;;;;;;;;5087065;28;39307;-67
2023/08/31 10:35:05;;;;;;;13.10;2.08;;;;;;;;;;5089926;28;41839;-68
2023/08/31 10:37:33;;;;;;;6.13;2.58;;;;;;;;;;5089378;28;42095;-67
2023/08/31 10:40:07;;;;;;;12.18;2.80;;;;;;;;;;5089360;28;41344;-67
2023/08/31 10:42:43;;;;;;;4.03;2.53;;;;;;;;;;5087255;28;41865;-67
2023/08/31 10:45:11;;;;;;;5.95;2.13;;;;;;;;;;5086838;28;41062;-67
2023/08/31 10:47:40;;;;;;;9.38;2.50;;;;;;;;;;5088537;28;42741;-67
2023/08/31 10:50:22;;;;;;;14.70;2.83;;;;;;;;;;5090353;28;42055;-67
2023/08/31 10:52:50;;;;;;;7.25;3.00;;;;;;;;;;5089318;28;41793;-67
2023/08/31 10:55:18;;;;;;;7.55;3.03;;;;;;;;;;5087044;28;40215;-67
2023/08/31 10:57:47;;;;;;;10.00;3.15;;;;;;;;;;5089886;28;41981;-67
2023/08/31 11:00:15;;;;;;;8.30;2.95;;;;;;;;;;5083159;28;41453;-69
2023/08/31 11:02:44;;;;;;;8.60;2.70;;;;;;;;;;5073101;28;40929;-69
2023/08/31 11:05:14;;;;;;;10.70;3.10;;;;;;;;;;5089086;28;42898;-69
2023/08/31 11:07:42;;;;;;;6.90;2.83;;;;;;;;;;5088879;28;41352;-68
2023/08/31 11:10:14;;;;;;;7.22;2.15;;;;;;;;;;5089352;28;42526;-68
2023/08/31 11:12:42;;;;;;;4.85;1.67;;;;;;;;;;5075222;28;40187;-68
2023/08/31 11:15:13;;;;;;;4.88;2.50;;;;;;;;;;5088076;28;41986;-68
2023/08/31 11:17:41;;;;;;;8.18;2.55;;;;;;;;;;5088596;28;42815;-69
2023/08/31 11:20:10;;;;;;;5.65;2.35;;;;;;;;;;5089023;28;40508;-68
2023/08/31 11:22:41;;;;;;;5.78;2.65;;;;;;;;;;5087781;28;42577;-69
2023/08/31 11:25:09;;;;;;;5.82;2.60;;;;;;;;;;5086362;28;42339;-67
2023/08/31 11:27:38;;;;;;;6.55;2.40;;;;;;;;;;5088333;28;41617;-68
2023/08/31 11:30:13;;;;;;;3.75;1.88;;;;;;;;;;5088665;28;43101;-68
2023/08/31 11:32:45;;;;;;;4.72;1.95;;;;;;;;;;5078293;28;40026;-69
2023/08/31 11:35:13;;;;;;;8.73;2.10;;;;;;;;;;5079749;28;40092;-68
2023/08/31 11:37:41;;;;;;;9.07;2.70;;;;;;;;;;5089314;28;41545;-69
2023/08/31 11:40:10;;;;;;;4.45;1.80;;;;;;;;;;5089036;28;39743;-69
2023/08/31 11:42:38;;;;;;;2.58;1.20;;;;;;;;;;5087414;28;42749;-68
2023/08/31 11:45:06;;;;;;;4.00;2.45;;;;;;;;;;5089326;28;42087;-68
2023/08/31 11:47:36;;;;;;;5.40;2.08;;;;;;;;;;5082924;28;40277;-68
2023/08/31 11:50:04;;;;;;;4.25;1.65;;;;;;;;;;5087002;28;42044;-69
2023/08/31 11:52:32;;;;;;;3.00;1.60;;;;;;;;;;5082303;28;41729;-68
2023/08/31 11:55:00;;;;;;;6.68;1.50;;;;;;;;;;5086616;28;42659;-68
2023/08/31 11:57:28;;;;;;;5.80;1.60;;;;;;;;;;5074922;28;42271;-68
2023/08/31 11:59:56;;;;;;;3.53;1.13;;;;;;;;;;5069250;28;41230;-68
2023/08/31 12:02:24;;;;;;;4.20;1.33;;;;;;;;;;5077688;28;41697;-68
2023/08/31 12:04:54;;;;;;;2.42;1.20;;;;;;;;;;5081477;28;41925;-68
2023/08/31 12:07:22;;;;;;;3.55;1.20;;;;;;;;;;5077085;28;39877;-68
2023/08/31 12:09:50;;;;;;;6.50;1.13;;;;;;;;;;5081327;28;41506;-68
2023/08/31 12:12:21;;;;;;;2.67;1.20;;;;;;;;;;5081687;28;41055;-68
2023/08/31 12:14:53;;;;;;;5.28;1.52;;;;;;;;;;5083228;28;41522;-68
2023/08/31 12:17:21;;;;;;;5.00;0.90;;;;;;;;;;5082838;28;42127;-68
2023/08/31 12:19:49;;;;;;;8.98;1.55;;;;;;;;;;5086975;28;39254;-68
2023/08/31 12:22:18;;;;;;;3.88;1.15;;;;;;;;;;5085113;28;41853;-68
2023/08/31 12:24:46;;;;;;;2.20;0.75;;;;;;;;;;5079415;28;41481;-68
2023/08/31 12:27:14;;;;;;;2.22;0.90;;;;;;;;;;5079150;28;40505;-68
2023/08/31 12:29:42;;;;;;;3.38;0.82;;;;;;;;;;5110938;27;41034;-69
2023/08/31 12:32:10;;;;;;;3.33;0.73;;;;;;;;;;5083078;28;42314;-68
2023/08/31 12:34:38;;;;;;;5.72;0.93;;;;;;;;;;5086439;28;42239;-68
2023/08/31 12:37:07;;;;;;;2.40;0.90;;;;;;;;;;5115885;27;40470;-68
2023/08/31 12:39:37;;;;;;;3.95;0.80;;;;;;;;;;5069688;28;40061;-68
2023/08/31 12:42:05;;;;;;;2.80;0.80;;;;;;;;;;5077026;28;41677;-68
2023/08/31 12:44:50;;;;;;;5.18;0.93;;;;;;;;;;5075702;28;42218;-68
2023/08/31 12:47:18;;;;;;;3.70;0.70;;;;;;;;;;5073952;28;39986;-69
2023/08/31 12:49:46;;;;;;;3.42;1.00;;;;;;;;;;5080896;28;41638;-68
2023/08/31 12:52:14;;;;;;;3.03;0.80;;;;;;;;;;5083729;28;42062;-68
2023/08/31 12:54:43;;;;;;;1.20;0.70;;;;;;;;;;5082359;28;41273;-69
2023/08/31 12:57:11;;;;;;;1.27;0.70;;;;;;;;;;5078559;28;41696;-68
2023/08/31 12:59:39;;;;;;;2.65;0.85;;;;;;;;;;5073523;28;40050;-68
2023/08/31 13:02:10;;;;;;;2.45;0.60;;;;;;;;;;5075104;28;41335;-68
2023/08/31 13:04:39;;;;;;;1.80;0.95;;;;;;;;;;5070390;28;41559;-69
2023/08/31 13:07:09;;;;;;;2.17;0.80;;;;;;;;;;5076180;28;41242;-68
2023/08/31 13:09:36;;;;;;;2.08;0.60;;;;;;;;;;5075266;28;41748;-69
2023/08/31 13:12:06;;;;;;;3.88;0.75;;;;;;;;;;5075643;28;41499;-69
2023/08/31 13:14:34;;;;;;;6.57;0.70;;;;;;;;;;5072450;28;40220;-68
2023/08/31 13:17:03;;;;;;;2.13;0.80;;;;;;;;;;5074819;28;41734;-68
2023/08/31 13:19:32;;;;;;;4.25;0.60;;;;;;;;;;5074265;28;40335;-68
2023/08/31 13:22:00;;;;;;;1.92;0.60;;;;;;;;;;5083110;28;42023;-68
2023/08/31 13:24:28;;;;;;;5.60;0.60;;;;;;;;;;5074529;28;43652;-68
2023/08/31 13:26:56;;;;;;;2.00;0.68;;;;;;;;;;5077974;28;40809;-67
2023/08/31 13:29:25;;;;;;;2.05;0.70;;;;;;;;;;5081034;28;41679;-68
2023/08/31 13:31:53;;;;;;;1.27;0.70;;;;;;;;;;5086072;28;42292;-67
2023/08/31 13:34:21;;;;;;;2.15;0.50;;;;;;;;;;5083062;28;40097;-68
2023/08/31 13:36:49;;;;;;;4.13;0.90;;;;;;;;;;5085955;28;41519;-68
2023/08/31 13:39:17;;;;;;;2.15;0.63;;;;;;;;;;5089327;28;41361;-68
2023/08/31 13:41:45;;;;;;;1.77;0.77;;;;;;;;;;5090027;28;41632;-68
2023/08/31 13:44:13;;;;;;;1.90;0.77;;;;;;;;;;5088895;28;41804;-68
2023/08/31 13:46:43;;;;;;;6.47;0.60;;;;;;;;;;5090110;28;40181;-68
2023/08/31 13:49:11;;;;;;;2.65;0.73;;;;;;;;;;5088469;28;41292;-68
2023/08/31 13:51:39;;;;;;;2.83;0.68;;;;;;;;;;5089710;28;42050;-67
2023/08/31 13:54:07;;;;;;;2.47;0.60;;;;;;;;;;5088973;28;41282;-67
2023/08/31 13:56:36;;;;;;;4.20;0.65;;;;;;;;;;5083111;28;41754;-68
2023/08/31 13:59:03;;;;;;;3.08;0.75;;;;;;;;;;5090079;28;43160;-67
2023/08/31 14:01:32;;;;;;;1.63;0.70;;;;;;;;;;5089036;28;41643;-68
2023/08/31 14:04:02;;;;;;;10.15;0.70;;;;;;;;;;5086679;28;41936;-67
2023/08/31 14:06:30;;;;;;;1.70;0.70;;;;;;;;;;5081060;28;40407;-68
2023/08/31 14:08:59;;;;;;;3.65;0.80;;;;;;;;;;5078868;28;42022;-67
2023/08/31 14:11:29;;;;;;;2.10;0.80;;;;;;;;;;5088022;28;41894;-68
2023/08/31 14:14:03;;;;;;;1.95;0.50;;;;;;;;;;5086940;28;39092;-68
2023/08/31 14:16:31;;;;;;;2.97;0.80;;;;;;;;;;5087119;28;41551;-68
2023/08/31 14:19:00;;;;;;;3.65;0.50;;;;;;;;;;5079091;28;42387;-68
2023/08/31 14:21:28;;;;;;;2.17;0.63;;;;;;;;;;5088681;28;42266;-68
2023/08/31 14:23:56;;;;;;;2.47;0.43;;;;;;;;;;5086668;28;43051;-68
2023/08/31 14:26:24;;;;;;;2.38;0.63;;;;;;;;;;5088764;28;39948;-68
2023/08/31 14:28:52;;;;;;;1.98;0.80;;;;;;;;;;5085239;28;41633;-68
2023/08/31 14:31:21;;;;;;;2.17;0.70;;;;;;;;;;5088299;28;43068;-68
2023/08/31 14:33:49;;;;;;;2.95;0.65;;;;;;;;;;5087489;28;40825;-68
2023/08/31 14:36:19;;;;;;;2.38;0.95;;;;;;;;;;5085911;28;42655;-68
2023/08/31 14:38:47;;;;;;;2.90;0.60;;;;;;;;;;5086135;28;40602;-68
2023/08/31 14:41:15;;;;;;;3.55;0.80;;;;;;;;;;5088308;28;41319;-68
2023/08/31 14:43:43;;;;;;;2.60;0.88;;;;;;;;;;5089223;28;42524;-68
2023/08/31 14:46:11;;;;;;;3.17;0.80;;;;;;;;;;5087546;28;42688;-67
2023/08/31 14:48:39;;;;;;;3.17;0.85;;;;;;;;;;5086129;28;40107;-67
2023/08/31 14:51:08;;;;;;;4.63;0.80;;;;;;;;;;5088729;28;42572;-67
2023/08/31 14:53:39;;;;;;;4.22;0.70;;;;;;;;;;5088105;28;39690;-67